sensor_id;sensor_type;location;lat;lon;timestamp;P1;durP1;ratioP1;P2;durP2;ratioP2
23155;SDS011;11746;50.876;4.246;2022-12-07T00:01:38;16.75;;;10.70;;
23155;SDS011;11746;50.876;4.246;2022-12-07T00:04:06;16.17;;;11.43;;
23155;SDS011;11746;50.876;4.246;2022-12-07T00:06:34;16.23;;;10.68;;
23155;SDS011;11746;50.876;4.246;2022-12-07T00:09:02;17.17;;;11.13;;
23155;SDS011;11746;50.876;4.246;2022-12-07T00:11:28;18.40;;;11.38;;
23155;SDS011;11746;50.876;4.246;2022-12-07T00:13:55;15.70;;;11.25;;
23155;SDS011;11746;50.876;4.246;2022-12-07T00:16:23;14.55;;;10.57;;
23155;SDS011;11746;50.876;4.246;2022-12-07T00:18:51;14.25;;;9.95;;
23155;SDS011;11746;50.876;4.246;2022-12-07T00:21:17;15.48;;;10.70;;
23155;SDS011;11746;50.876;4.246;2022-12-07T00:23:47;15.52;;;9.98;;
23155;SDS011;11746;50.876;4.246;2022-12-07T00:26:21;13.13;;;9.77;;
23155;SDS011;11746;50.876;4.246;2022-12-07T00:28:50;13.75;;;10.27;;
23155;SDS011;11746;50.876;4.246;2022-12-07T00:31:18;14.93;;;10.13;;
23155;SDS011;11746;50.876;4.246;2022-12-07T00:33:45;16.95;;;11.10;;
23155;SDS011;11746;50.876;4.246;2022-12-07T00:36:13;17.15;;;10.77;;
23155;SDS011;11746;50.876;4.246;2022-12-07T00:38:44;17.55;;;11.23;;
23155;SDS011;11746;50.876;4.246;2022-12-07T00:41:14;17.30;;;11.80;;
23155;SDS011;11746;50.876;4.246;2022-12-07T00:43:43;15.85;;;10.57;;
23155;SDS011;11746;50.876;4.246;2022-12-07T00:46:13;16.75;;;11.15;;
23155;SDS011;11746;50.876;4.246;2022-12-07T00:48:41;16.90;;;11.25;;
23155;SDS011;11746;50.876;4.246;2022-12-07T00:51:07;17.25;;;10.85;;
23155;SDS011;11746;50.876;4.246;2022-12-07T00:53:36;14.50;;;10.77;;
23155;SDS011;11746;50.876;4.246;2022-12-07T00:56:06;18.42;;;11.07;;
23155;SDS011;11746;50.876;4.246;2022-12-07T00:58:37;17.42;;;11.45;;
23155;SDS011;11746;50.876;4.246;2022-12-07T01:01:04;16.80;;;11.45;;
23155;SDS011;11746;50.876;4.246;2022-12-07T01:03:31;17.88;;;10.93;;
23155;SDS011;11746;50.876;4.246;2022-12-07T01:05:57;15.43;;;10.43;;
23155;SDS011;11746;50.876;4.246;2022-12-07T01:08:24;15.35;;;10.70;;
23155;SDS011;11746;50.876;4.246;2022-12-07T01:11:00;15.57;;;10.40;;
23155;SDS011;11746;50.876;4.246;2022-12-07T01:13:33;17.42;;;11.13;;
23155;SDS011;11746;50.876;4.246;2022-12-07T01:16:05;16.85;;;11.15;;
23155;SDS011;11746;50.876;4.246;2022-12-07T01:18:34;15.35;;;10.73;;
23155;SDS011;11746;50.876;4.246;2022-12-07T01:21:09;14.68;;;11.10;;
23155;SDS011;11746;50.876;4.246;2022-12-07T01:23:42;13.65;;;10.93;;
23155;SDS011;11746;50.876;4.246;2022-12-07T01:26:10;15.10;;;10.43;;
23155;SDS011;11746;50.876;4.246;2022-12-07T01:28:38;14.52;;;10.85;;
23155;SDS011;11746;50.876;4.246;2022-12-07T01:31:08;17.85;;;11.90;;
23155;SDS011;11746;50.876;4.246;2022-12-07T01:33:36;15.82;;;11.05;;
23155;SDS011;11746;50.876;4.246;2022-12-07T01:36:07;17.05;;;11.02;;
23155;SDS011;11746;50.876;4.246;2022-12-07T01:38:38;16.92;;;11.10;;
23155;SDS011;11746;50.876;4.246;2022-12-07T01:41:06;17.20;;;11.15;;
23155;SDS011;11746;50.876;4.246;2022-12-07T01:43:34;17.08;;;11.52;;
23155;SDS011;11746;50.876;4.246;2022-12-07T01:46:02;15.18;;;11.32;;
23155;SDS011;11746;50.876;4.246;2022-12-07T01:48:38;18.17;;;12.07;;
23155;SDS011;11746;50.876;4.246;2022-12-07T01:51:10;14.00;;;11.10;;
23155;SDS011;11746;50.876;4.246;2022-12-07T01:53:38;16.58;;;11.73;;
23155;SDS011;11746;50.876;4.246;2022-12-07T01:56:11;14.70;;;11.25;;
23155;SDS011;11746;50.876;4.246;2022-12-07T01:58:41;16.95;;;11.38;;
23155;SDS011;11746;50.876;4.246;2022-12-07T02:01:07;18.65;;;11.50;;
23155;SDS011;11746;50.876;4.246;2022-12-07T02:03:43;16.20;;;11.98;;
23155;SDS011;11746;50.876;4.246;2022-12-07T02:06:10;13.52;;;10.57;;
23155;SDS011;11746;50.876;4.246;2022-12-07T02:08:41;15.68;;;11.00;;
23155;SDS011;11746;50.876;4.246;2022-12-07T02:11:07;14.23;;;10.65;;
23155;SDS011;11746;50.876;4.246;2022-12-07T02:13:35;17.95;;;10.60;;
23155;SDS011;11746;50.876;4.246;2022-12-07T02:24:23;14.77;;;10.20;;
23155;SDS011;11746;50.876;4.246;2022-12-07T02:29:50;15.77;;;11.20;;
23155;SDS011;11746;50.876;4.246;2022-12-07T02:32:24;14.65;;;11.43;;
23155;SDS011;11746;50.876;4.246;2022-12-07T02:35:09;15.32;;;10.70;;
23155;SDS011;11746;50.876;4.246;2022-12-07T02:40:10;16.58;;;10.98;;
23155;SDS011;11746;50.876;4.246;2022-12-07T02:42:44;16.17;;;11.20;;
23155;SDS011;11746;50.876;4.246;2022-12-07T02:45:14;14.43;;;11.10;;
23155;SDS011;11746;50.876;4.246;2022-12-07T02:47:44;15.95;;;11.55;;
23155;SDS011;11746;50.876;4.246;2022-12-07T02:50:16;14.85;;;10.60;;
23155;SDS011;11746;50.876;4.246;2022-12-07T02:52:45;14.70;;;10.57;;
23155;SDS011;11746;50.876;4.246;2022-12-07T02:55:13;17.00;;;10.63;;
23155;SDS011;11746;50.876;4.246;2022-12-07T02:57:59;13.88;;;9.98;;
23155;SDS011;11746;50.876;4.246;2022-12-07T03:00:35;14.57;;;10.02;;
23155;SDS011;11746;50.876;4.246;2022-12-07T03:03:12;15.60;;;10.20;;
23155;SDS011;11746;50.876;4.246;2022-12-07T03:05:44;13.40;;;9.75;;
23155;SDS011;11746;50.876;4.246;2022-12-07T03:13:28;11.77;;;8.40;;
23155;SDS011;11746;50.876;4.246;2022-12-07T03:16:08;13.57;;;8.88;;
23155;SDS011;11746;50.876;4.246;2022-12-07T03:19:22;12.45;;;8.82;;
23155;SDS011;11746;50.876;4.246;2022-12-07T03:21:43;12.30;;;9.18;;
23155;SDS011;11746;50.876;4.246;2022-12-07T03:24:18;11.63;;;7.97;;
23155;SDS011;11746;50.876;4.246;2022-12-07T03:26:54;11.73;;;8.13;;
23155;SDS011;11746;50.876;4.246;2022-12-07T03:29:42;12.55;;;8.65;;
23155;SDS011;11746;50.876;4.246;2022-12-07T03:34:53;12.10;;;8.40;;
23155;SDS011;11746;50.876;4.246;2022-12-07T03:42:51;12.27;;;8.57;;
23155;SDS011;11746;50.876;4.246;2022-12-07T03:45:19;12.70;;;8.75;;
23155;SDS011;11746;50.876;4.246;2022-12-07T03:47:53;11.05;;;8.43;;
23155;SDS011;11746;50.876;4.246;2022-12-07T03:50:31;13.00;;;8.48;;
23155;SDS011;11746;50.876;4.246;2022-12-07T03:53:35;11.77;;;8.20;;
23155;SDS011;11746;50.876;4.246;2022-12-07T03:56:03;11.07;;;7.93;;
23155;SDS011;11746;50.876;4.246;2022-12-07T03:58:30;11.73;;;8.90;;
23155;SDS011;11746;50.876;4.246;2022-12-07T04:00:59;11.88;;;8.75;;
23155;SDS011;11746;50.876;4.246;2022-12-07T04:03:24;13.32;;;8.02;;
23155;SDS011;11746;50.876;4.246;2022-12-07T04:05:53;13.27;;;8.80;;
23155;SDS011;11746;50.876;4.246;2022-12-07T04:08:23;15.90;;;8.80;;
23155;SDS011;11746;50.876;4.246;2022-12-07T04:10:51;13.45;;;8.30;;
23155;SDS011;11746;50.876;4.246;2022-12-07T04:13:17;10.48;;;7.82;;
23155;SDS011;11746;50.876;4.246;2022-12-07T04:15:44;13.07;;;9.27;;
23155;SDS011;11746;50.876;4.246;2022-12-07T04:18:09;10.90;;;7.40;;
23155;SDS011;11746;50.876;4.246;2022-12-07T04:20:35;13.70;;;8.45;;
23155;SDS011;11746;50.876;4.246;2022-12-07T04:23:03;11.93;;;8.50;;
23155;SDS011;11746;50.876;4.246;2022-12-07T04:25:32;14.50;;;8.45;;
23155;SDS011;11746;50.876;4.246;2022-12-07T04:27:57;12.05;;;8.80;;
23155;SDS011;11746;50.876;4.246;2022-12-07T04:30:26;11.68;;;7.78;;
23155;SDS011;11746;50.876;4.246;2022-12-07T04:32:51;11.80;;;7.90;;
23155;SDS011;11746;50.876;4.246;2022-12-07T04:35:17;14.77;;;8.23;;
23155;SDS011;11746;50.876;4.246;2022-12-07T04:37:43;12.65;;;8.10;;
23155;SDS011;11746;50.876;4.246;2022-12-07T04:40:11;13.10;;;8.55;;
23155;SDS011;11746;50.876;4.246;2022-12-07T04:42:39;13.50;;;9.35;;
23155;SDS011;11746;50.876;4.246;2022-12-07T04:45:05;13.07;;;8.38;;
23155;SDS011;11746;50.876;4.246;2022-12-07T04:47:31;15.00;;;9.32;;
23155;SDS011;11746;50.876;4.246;2022-12-07T04:49:56;13.20;;;8.20;;
23155;SDS011;11746;50.876;4.246;2022-12-07T04:52:25;11.70;;;8.55;;
23155;SDS011;11746;50.876;4.246;2022-12-07T04:54:50;11.90;;;7.78;;
23155;SDS011;11746;50.876;4.246;2022-12-07T04:57:16;11.75;;;8.05;;
23155;SDS011;11746;50.876;4.246;2022-12-07T04:59:42;12.10;;;7.95;;
23155;SDS011;11746;50.876;4.246;2022-12-07T05:02:08;11.85;;;7.78;;
23155;SDS011;11746;50.876;4.246;2022-12-07T05:04:36;11.43;;;7.53;;
23155;SDS011;11746;50.876;4.246;2022-12-07T05:07:01;10.05;;;7.40;;
23155;SDS011;11746;50.876;4.246;2022-12-07T05:09:27;11.20;;;7.13;;
23155;SDS011;11746;50.876;4.246;2022-12-07T05:11:53;11.63;;;7.32;;
23155;SDS011;11746;50.876;4.246;2022-12-07T05:14:21;12.55;;;8.13;;
23155;SDS011;11746;50.876;4.246;2022-12-07T05:16:47;13.57;;;9.65;;
23155;SDS011;11746;50.876;4.246;2022-12-07T05:19:18;20.90;;;12.23;;
23155;SDS011;11746;50.876;4.246;2022-12-07T05:21:47;13.38;;;10.00;;
23155;SDS011;11746;50.876;4.246;2022-12-07T05:24:15;12.65;;;8.88;;
23155;SDS011;11746;50.876;4.246;2022-12-07T05:26:41;10.43;;;8.85;;
23155;SDS011;11746;50.876;4.246;2022-12-07T05:29:07;13.75;;;8.15;;
23155;SDS011;11746;50.876;4.246;2022-12-07T05:31:39;12.18;;;8.85;;
23155;SDS011;11746;50.876;4.246;2022-12-07T05:34:05;14.70;;;8.25;;
23155;SDS011;11746;50.876;4.246;2022-12-07T05:36:30;11.43;;;8.02;;
23155;SDS011;11746;50.876;4.246;2022-12-07T05:38:58;12.45;;;8.18;;
23155;SDS011;11746;50.876;4.246;2022-12-07T05:41:25;13.48;;;8.23;;
23155;SDS011;11746;50.876;4.246;2022-12-07T05:44:09;10.40;;;8.07;;
23155;SDS011;11746;50.876;4.246;2022-12-07T05:46:35;12.20;;;8.35;;
23155;SDS011;11746;50.876;4.246;2022-12-07T05:49:04;13.52;;;8.02;;
23155;SDS011;11746;50.876;4.246;2022-12-07T05:51:30;12.80;;;8.80;;
23155;SDS011;11746;50.876;4.246;2022-12-07T05:53:55;10.98;;;7.53;;
23155;SDS011;11746;50.876;4.246;2022-12-07T05:56:21;11.90;;;8.75;;
23155;SDS011;11746;50.876;4.246;2022-12-07T05:58:47;13.10;;;8.55;;
23155;SDS011;11746;50.876;4.246;2022-12-07T06:01:35;14.18;;;9.27;;
23155;SDS011;11746;50.876;4.246;2022-12-07T06:04:03;12.82;;;8.70;;
23155;SDS011;11746;50.876;4.246;2022-12-07T06:06:28;12.85;;;8.55;;
23155;SDS011;11746;50.876;4.246;2022-12-07T06:08:55;11.93;;;9.10;;
23155;SDS011;11746;50.876;4.246;2022-12-07T06:11:20;12.05;;;8.93;;
23155;SDS011;11746;50.876;4.246;2022-12-07T06:14:04;11.90;;;8.43;;
23155;SDS011;11746;50.876;4.246;2022-12-07T06:16:30;14.55;;;8.25;;
23155;SDS011;11746;50.876;4.246;2022-12-07T06:18:56;11.32;;;8.43;;
23155;SDS011;11746;50.876;4.246;2022-12-07T06:21:22;12.63;;;8.82;;
23155;SDS011;11746;50.876;4.246;2022-12-07T06:23:51;15.57;;;8.55;;
23155;SDS011;11746;50.876;4.246;2022-12-07T06:26:17;12.68;;;8.25;;
23155;SDS011;11746;50.876;4.246;2022-12-07T06:28:42;13.50;;;9.15;;
23155;SDS011;11746;50.876;4.246;2022-12-07T06:31:08;14.32;;;8.30;;
23155;SDS011;11746;50.876;4.246;2022-12-07T06:33:34;12.43;;;7.30;;
23155;SDS011;11746;50.876;4.246;2022-12-07T06:36:03;10.55;;;7.68;;
23155;SDS011;11746;50.876;4.246;2022-12-07T06:38:29;10.82;;;7.60;;
23155;SDS011;11746;50.876;4.246;2022-12-07T06:40:55;9.10;;;7.40;;
23155;SDS011;11746;50.876;4.246;2022-12-07T06:43:21;11.90;;;7.63;;
23155;SDS011;11746;50.876;4.246;2022-12-07T06:45:46;11.98;;;7.22;;
23155;SDS011;11746;50.876;4.246;2022-12-07T06:48:12;12.73;;;7.40;;
23155;SDS011;11746;50.876;4.246;2022-12-07T06:50:39;9.90;;;6.72;;
23155;SDS011;11746;50.876;4.246;2022-12-07T06:53:05;13.40;;;6.95;;
23155;SDS011;11746;50.876;4.246;2022-12-07T06:55:31;10.75;;;7.38;;
23155;SDS011;11746;50.876;4.246;2022-12-07T06:57:59;9.57;;;6.68;;
23155;SDS011;11746;50.876;4.246;2022-12-07T07:00:26;10.90;;;6.47;;
23155;SDS011;11746;50.876;4.246;2022-12-07T07:02:54;9.68;;;6.00;;
23155;SDS011;11746;50.876;4.246;2022-12-07T07:05:20;12.07;;;6.30;;
23155;SDS011;11746;50.876;4.246;2022-12-07T07:07:47;14.40;;;7.15;;
23155;SDS011;11746;50.876;4.246;2022-12-07T07:10:16;13.38;;;7.32;;
23155;SDS011;11746;50.876;4.246;2022-12-07T07:12:41;12.13;;;7.63;;
23155;SDS011;11746;50.876;4.246;2022-12-07T07:15:07;13.63;;;7.68;;
23155;SDS011;11746;50.876;4.246;2022-12-07T07:17:33;12.00;;;7.38;;
23155;SDS011;11746;50.876;4.246;2022-12-07T07:19:58;11.52;;;7.45;;
23155;SDS011;11746;50.876;4.246;2022-12-07T07:22:27;11.48;;;7.03;;
23155;SDS011;11746;50.876;4.246;2022-12-07T07:24:54;11.57;;;6.72;;
23155;SDS011;11746;50.876;4.246;2022-12-07T07:27:20;11.50;;;6.70;;
23155;SDS011;11746;50.876;4.246;2022-12-07T07:29:49;9.35;;;7.40;;
23155;SDS011;11746;50.876;4.246;2022-12-07T07:32:17;12.25;;;7.05;;
23155;SDS011;11746;50.876;4.246;2022-12-07T07:34:43;10.13;;;7.43;;
23155;SDS011;11746;50.876;4.246;2022-12-07T07:37:11;11.35;;;7.05;;
23155;SDS011;11746;50.876;4.246;2022-12-07T07:39:39;11.57;;;7.28;;
23155;SDS011;11746;50.876;4.246;2022-12-07T07:42:05;11.68;;;7.57;;
23155;SDS011;11746;50.876;4.246;2022-12-07T07:44:32;14.85;;;7.13;;
23155;SDS011;11746;50.876;4.246;2022-12-07T07:47:04;13.43;;;7.55;;
23155;SDS011;11746;50.876;4.246;2022-12-07T07:49:29;12.10;;;7.43;;
23155;SDS011;11746;50.876;4.246;2022-12-07T07:51:56;12.15;;;7.30;;
23155;SDS011;11746;50.876;4.246;2022-12-07T07:54:22;10.50;;;7.20;;
23155;SDS011;11746;50.876;4.246;2022-12-07T07:56:47;11.05;;;7.53;;
23155;SDS011;11746;50.876;4.246;2022-12-07T07:59:14;15.23;;;7.75;;
23155;SDS011;11746;50.876;4.246;2022-12-07T08:01:41;12.75;;;7.72;;
23155;SDS011;11746;50.876;4.246;2022-12-07T08:04:09;11.07;;;7.38;;
23155;SDS011;11746;50.876;4.246;2022-12-07T08:06:34;14.30;;;7.80;;
23155;SDS011;11746;50.876;4.246;2022-12-07T08:09:00;12.20;;;7.03;;
23155;SDS011;11746;50.876;4.246;2022-12-07T08:11:27;12.45;;;7.55;;
23155;SDS011;11746;50.876;4.246;2022-12-07T08:13:52;10.93;;;6.72;;
23155;SDS011;11746;50.876;4.246;2022-12-07T08:16:20;11.63;;;7.15;;
23155;SDS011;11746;50.876;4.246;2022-12-07T08:18:46;11.82;;;7.70;;
23155;SDS011;11746;50.876;4.246;2022-12-07T08:21:13;10.55;;;6.72;;
23155;SDS011;11746;50.876;4.246;2022-12-07T08:23:39;12.30;;;7.13;;
23155;SDS011;11746;50.876;4.246;2022-12-07T08:26:06;11.27;;;6.20;;
23155;SDS011;11746;50.876;4.246;2022-12-07T08:28:34;12.25;;;7.28;;
23155;SDS011;11746;50.876;4.246;2022-12-07T08:31:03;9.75;;;7.22;;
23155;SDS011;11746;50.876;4.246;2022-12-07T08:33:37;11.48;;;7.63;;
23155;SDS011;11746;50.876;4.246;2022-12-07T08:36:04;13.30;;;8.20;;
23155;SDS011;11746;50.876;4.246;2022-12-07T08:38:34;13.10;;;7.90;;
23155;SDS011;11746;50.876;4.246;2022-12-07T08:41:01;13.95;;;7.95;;
23155;SDS011;11746;50.876;4.246;2022-12-07T08:43:27;17.23;;;8.88;;
23155;SDS011;11746;50.876;4.246;2022-12-07T08:45:55;14.65;;;9.48;;
23155;SDS011;11746;50.876;4.246;2022-12-07T08:48:27;15.30;;;8.70;;
23155;SDS011;11746;50.876;4.246;2022-12-07T08:50:53;14.68;;;8.23;;
23155;SDS011;11746;50.876;4.246;2022-12-07T08:53:19;14.18;;;8.63;;
23155;SDS011;11746;50.876;4.246;2022-12-07T08:55:45;16.10;;;8.52;;
23155;SDS011;11746;50.876;4.246;2022-12-07T08:58:16;12.30;;;7.53;;
23155;SDS011;11746;50.876;4.246;2022-12-07T09:00:42;14.43;;;7.75;;
23155;SDS011;11746;50.876;4.246;2022-12-07T09:03:09;13.32;;;7.10;;
23155;SDS011;11746;50.876;4.246;2022-12-07T09:05:38;9.55;;;6.90;;
23155;SDS011;11746;50.876;4.246;2022-12-07T09:08:06;12.77;;;7.40;;
23155;SDS011;11746;50.876;4.246;2022-12-07T09:10:34;12.32;;;8.43;;
23155;SDS011;11746;50.876;4.246;2022-12-07T09:13:02;10.48;;;7.43;;
23155;SDS011;11746;50.876;4.246;2022-12-07T09:15:28;12.93;;;7.47;;
23155;SDS011;11746;50.876;4.246;2022-12-07T09:17:55;11.10;;;6.95;;
23155;SDS011;11746;50.876;4.246;2022-12-07T09:20:21;14.60;;;8.05;;
23155;SDS011;11746;50.876;4.246;2022-12-07T09:22:47;12.57;;;7.00;;
23155;SDS011;11746;50.876;4.246;2022-12-07T09:25:12;15.13;;;7.40;;
23155;SDS011;11746;50.876;4.246;2022-12-07T09:27:38;11.38;;;7.20;;
23155;SDS011;11746;50.876;4.246;2022-12-07T09:30:04;13.38;;;6.85;;
23155;SDS011;11746;50.876;4.246;2022-12-07T09:35:06;9.30;;;6.65;;
23155;SDS011;11746;50.876;4.246;2022-12-07T09:37:33;13.43;;;6.95;;
23155;SDS011;11746;50.876;4.246;2022-12-07T09:40:01;9.55;;;6.35;;
23155;SDS011;11746;50.876;4.246;2022-12-07T09:42:37;13.48;;;6.93;;
23155;SDS011;11746;50.876;4.246;2022-12-07T09:45:16;12.15;;;6.85;;
23155;SDS011;11746;50.876;4.246;2022-12-07T09:47:47;10.43;;;7.07;;
23155;SDS011;11746;50.876;4.246;2022-12-07T09:50:14;9.43;;;7.18;;
23155;SDS011;11746;50.876;4.246;2022-12-07T09:52:44;15.30;;;7.90;;
23155;SDS011;11746;50.876;4.246;2022-12-07T09:55:16;13.23;;;7.40;;
23155;SDS011;11746;50.876;4.246;2022-12-07T09:57:48;13.32;;;8.93;;
23155;SDS011;11746;50.876;4.246;2022-12-07T10:00:16;13.55;;;7.90;;
23155;SDS011;11746;50.876;4.246;2022-12-07T10:02:44;12.73;;;7.57;;
23155;SDS011;11746;50.876;4.246;2022-12-07T10:05:25;12.63;;;8.10;;
23155;SDS011;11746;50.876;4.246;2022-12-07T10:07:55;13.82;;;7.88;;
23155;SDS011;11746;50.876;4.246;2022-12-07T10:10:25;14.55;;;8.05;;
23155;SDS011;11746;50.876;4.246;2022-12-07T10:13:13;11.25;;;7.65;;
23155;SDS011;11746;50.876;4.246;2022-12-07T10:23:29;11.55;;;7.68;;
23155;SDS011;11746;50.876;4.246;2022-12-07T10:25:55;13.95;;;7.28;;
23155;SDS011;11746;50.876;4.246;2022-12-07T10:28:21;15.55;;;7.78;;
23155;SDS011;11746;50.876;4.246;2022-12-07T10:31:02;15.18;;;7.65;;
23155;SDS011;11746;50.876;4.246;2022-12-07T10:33:52;11.00;;;6.22;;
23155;SDS011;11746;50.876;4.246;2022-12-07T10:36:36;13.30;;;6.95;;
23155;SDS011;11746;50.876;4.246;2022-12-07T10:39:13;12.20;;;6.47;;
23155;SDS011;11746;50.876;4.246;2022-12-07T10:44:29;11.50;;;6.60;;
23155;SDS011;11746;50.876;4.246;2022-12-07T11:06:48;11.27;;;5.68;;
23155;SDS011;11746;50.876;4.246;2022-12-07T11:09:29;9.45;;;5.30;;
23155;SDS011;11746;50.876;4.246;2022-12-07T11:15:01;11.18;;;5.90;;
23155;SDS011;11746;50.876;4.246;2022-12-07T11:23:26;12.52;;;5.53;;
23155;SDS011;11746;50.876;4.246;2022-12-07T11:37:33;11.57;;;5.28;;
23155;SDS011;11746;50.876;4.246;2022-12-07T11:42:42;13.32;;;4.70;;
23155;SDS011;11746;50.876;4.246;2022-12-07T11:48:05;10.45;;;4.05;;
23155;SDS011;11746;50.876;4.246;2022-12-07T11:50:57;9.73;;;3.78;;
23155;SDS011;11746;50.876;4.246;2022-12-07T11:53:45;8.43;;;3.80;;
23155;SDS011;11746;50.876;4.246;2022-12-07T11:56:20;7.57;;;3.42;;
23155;SDS011;11746;50.876;4.246;2022-12-07T11:58:57;7.75;;;2.90;;
23155;SDS011;11746;50.876;4.246;2022-12-07T12:06:34;3.55;;;1.70;;
23155;SDS011;11746;50.876;4.246;2022-12-07T12:12:07;7.03;;;1.70;;
23155;SDS011;11746;50.876;4.246;2022-12-07T12:15:03;4.20;;;2.13;;
23155;SDS011;11746;50.876;4.246;2022-12-07T12:17:38;3.83;;;1.70;;
23155;SDS011;11746;50.876;4.246;2022-12-07T12:21:10;7.03;;;2.15;;
23155;SDS011;11746;50.876;4.246;2022-12-07T12:23:17;5.43;;;2.00;;
23155;SDS011;11746;50.876;4.246;2022-12-07T12:26:13;8.32;;;1.98;;
23155;SDS011;11746;50.876;4.246;2022-12-07T12:29:05;6.50;;;1.70;;
23155;SDS011;11746;50.876;4.246;2022-12-07T12:31:43;3.55;;;1.45;;
23155;SDS011;11746;50.876;4.246;2022-12-07T12:34:32;5.15;;;2.05;;
23155;SDS011;11746;50.876;4.246;2022-12-07T12:37:07;5.68;;;1.83;;
23155;SDS011;11746;50.876;4.246;2022-12-07T12:40:12;4.38;;;1.48;;
23155;SDS011;11746;50.876;4.246;2022-12-07T12:42:49;5.20;;;1.60;;
23155;SDS011;11746;50.876;4.246;2022-12-07T12:45:26;3.58;;;1.88;;
23155;SDS011;11746;50.876;4.246;2022-12-07T12:47:55;5.72;;;1.80;;
23155;SDS011;11746;50.876;4.246;2022-12-07T12:50:34;4.47;;;1.75;;
23155;SDS011;11746;50.876;4.246;2022-12-07T12:58:33;6.20;;;2.25;;
23155;SDS011;11746;50.876;4.246;2022-12-07T13:04:12;3.78;;;2.58;;
23155;SDS011;11746;50.876;4.246;2022-12-07T13:07:10;5.47;;;2.10;;
23155;SDS011;11746;50.876;4.246;2022-12-07T13:09:37;7.32;;;2.67;;
23155;SDS011;11746;50.876;4.246;2022-12-07T13:12:14;4.50;;;1.50;;
23155;SDS011;11746;50.876;4.246;2022-12-07T13:14:55;6.43;;;1.67;;
23155;SDS011;11746;50.876;4.246;2022-12-07T13:28:32;9.27;;;2.00;;
23155;SDS011;11746;50.876;4.246;2022-12-07T13:30:32;6.03;;;2.00;;
23155;SDS011;11746;50.876;4.246;2022-12-07T13:33:12;8.30;;;2.20;;
23155;SDS011;11746;50.876;4.246;2022-12-07T13:35:43;7.45;;;2.20;;
23155;SDS011;11746;50.876;4.246;2022-12-07T13:38:22;7.53;;;2.92;;
23155;SDS011;11746;50.876;4.246;2022-12-07T13:43:26;6.47;;;2.00;;
23155;SDS011;11746;50.876;4.246;2022-12-07T13:45:56;4.22;;;1.70;;
23155;SDS011;11746;50.876;4.246;2022-12-07T13:48:36;5.55;;;3.03;;
23155;SDS011;11746;50.876;4.246;2022-12-07T13:51:19;5.70;;;2.13;;
23155;SDS011;11746;50.876;4.246;2022-12-07T13:53:49;5.95;;;1.73;;
23155;SDS011;11746;50.876;4.246;2022-12-07T13:56:17;4.03;;;1.77;;
23155;SDS011;11746;50.876;4.246;2022-12-07T13:58:43;4.18;;;1.30;;
23155;SDS011;11746;50.876;4.246;2022-12-07T14:01:09;3.90;;;1.60;;
23155;SDS011;11746;50.876;4.246;2022-12-07T14:03:37;4.72;;;1.77;;
23155;SDS011;11746;50.876;4.246;2022-12-07T14:06:04;6.60;;;1.80;;
23155;SDS011;11746;50.876;4.246;2022-12-07T14:08:30;8.05;;;2.15;;
23155;SDS011;11746;50.876;4.246;2022-12-07T14:10:57;5.15;;;2.13;;
23155;SDS011;11746;50.876;4.246;2022-12-07T14:16:00;7.55;;;2.33;;
23155;SDS011;11746;50.876;4.246;2022-12-07T14:18:28;3.75;;;1.42;;
23155;SDS011;11746;50.876;4.246;2022-12-07T14:21:14;5.40;;;1.20;;
23155;SDS011;11746;50.876;4.246;2022-12-07T14:23:42;7.05;;;2.50;;
23155;SDS011;11746;50.876;4.246;2022-12-07T14:26:15;3.55;;;2.00;;
23155;SDS011;11746;50.876;4.246;2022-12-07T14:28:44;4.50;;;1.75;;
23155;SDS011;11746;50.876;4.246;2022-12-07T14:31:12;4.15;;;1.15;;
23155;SDS011;11746;50.876;4.246;2022-12-07T14:33:40;4.90;;;1.27;;
23155;SDS011;11746;50.876;4.246;2022-12-07T14:36:08;4.65;;;1.85;;
23155;SDS011;11746;50.876;4.246;2022-12-07T14:38:36;5.25;;;2.22;;
23155;SDS011;11746;50.876;4.246;2022-12-07T14:41:04;5.22;;;2.00;;
23155;SDS011;11746;50.876;4.246;2022-12-07T14:43:56;9.80;;;3.47;;
23155;SDS011;11746;50.876;4.246;2022-12-07T14:46:22;7.97;;;3.13;;
23155;SDS011;11746;50.876;4.246;2022-12-07T14:48:48;7.43;;;3.00;;
23155;SDS011;11746;50.876;4.246;2022-12-07T14:51:13;7.55;;;3.28;;
23155;SDS011;11746;50.876;4.246;2022-12-07T14:53:40;7.03;;;2.47;;
23155;SDS011;11746;50.876;4.246;2022-12-07T14:56:11;6.78;;;2.80;;
23155;SDS011;11746;50.876;4.246;2022-12-07T14:58:40;6.28;;;2.30;;
23155;SDS011;11746;50.876;4.246;2022-12-07T15:01:08;5.15;;;1.60;;
23155;SDS011;11746;50.876;4.246;2022-12-07T15:03:34;4.45;;;2.13;;
23155;SDS011;11746;50.876;4.246;2022-12-07T15:06:02;7.43;;;2.10;;
23155;SDS011;11746;50.876;4.246;2022-12-07T15:08:29;4.15;;;1.48;;
23155;SDS011;11746;50.876;4.246;2022-12-07T15:10:55;7.97;;;1.90;;
23155;SDS011;11746;50.876;4.246;2022-12-07T15:13:21;4.15;;;1.83;;
23155;SDS011;11746;50.876;4.246;2022-12-07T15:16:07;7.78;;;4.03;;
23155;SDS011;11746;50.876;4.246;2022-12-07T15:18:36;5.95;;;2.22;;
23155;SDS011;11746;50.876;4.246;2022-12-07T15:21:02;7.35;;;3.35;;
23155;SDS011;11746;50.876;4.246;2022-12-07T15:23:27;6.45;;;4.00;;
23155;SDS011;11746;50.876;4.246;2022-12-07T15:25:53;7.05;;;3.30;;
23155;SDS011;11746;50.876;4.246;2022-12-07T15:28:19;5.65;;;2.83;;
23155;SDS011;11746;50.876;4.246;2022-12-07T15:30:44;5.72;;;2.17;;
23155;SDS011;11746;50.876;4.246;2022-12-07T15:33:14;8.35;;;2.67;;
23155;SDS011;11746;50.876;4.246;2022-12-07T15:35:40;6.90;;;3.05;;
23155;SDS011;11746;50.876;4.246;2022-12-07T15:38:08;6.10;;;3.08;;
23155;SDS011;11746;50.876;4.246;2022-12-07T15:40:36;6.20;;;2.65;;
23155;SDS011;11746;50.876;4.246;2022-12-07T15:43:02;6.22;;;2.85;;
23155;SDS011;11746;50.876;4.246;2022-12-07T15:45:29;5.65;;;2.78;;
23155;SDS011;11746;50.876;4.246;2022-12-07T15:47:55;5.45;;;2.70;;
23155;SDS011;11746;50.876;4.246;2022-12-07T15:50:22;5.45;;;2.85;;
23155;SDS011;11746;50.876;4.246;2022-12-07T15:52:51;6.32;;;3.38;;
23155;SDS011;11746;50.876;4.246;2022-12-07T15:55:17;6.38;;;3.08;;
23155;SDS011;11746;50.876;4.246;2022-12-07T15:57:45;7.60;;;3.05;;
23155;SDS011;11746;50.876;4.246;2022-12-07T16:00:12;6.00;;;3.17;;
23155;SDS011;11746;50.876;4.246;2022-12-07T16:02:38;5.65;;;3.20;;
23155;SDS011;11746;50.876;4.246;2022-12-07T16:05:04;6.97;;;3.17;;
23155;SDS011;11746;50.876;4.246;2022-12-07T16:07:31;5.82;;;3.15;;
23155;SDS011;11746;50.876;4.246;2022-12-07T16:09:56;6.72;;;3.65;;
23155;SDS011;11746;50.876;4.246;2022-12-07T16:12:22;7.68;;;3.33;;
23155;SDS011;11746;50.876;4.246;2022-12-07T16:14:50;7.47;;;3.67;;
23155;SDS011;11746;50.876;4.246;2022-12-07T16:17:15;9.80;;;3.55;;
23155;SDS011;11746;50.876;4.246;2022-12-07T16:19:41;6.85;;;3.78;;
23155;SDS011;11746;50.876;4.246;2022-12-07T16:22:07;7.03;;;3.30;;
23155;SDS011;11746;50.876;4.246;2022-12-07T16:24:36;5.53;;;3.85;;
23155;SDS011;11746;50.876;4.246;2022-12-07T16:27:02;8.15;;;3.85;;
23155;SDS011;11746;50.876;4.246;2022-12-07T16:29:28;7.35;;;4.47;;
23155;SDS011;11746;50.876;4.246;2022-12-07T16:31:56;10.23;;;4.20;;
23155;SDS011;11746;50.876;4.246;2022-12-07T16:34:22;9.98;;;4.70;;
23155;SDS011;11746;50.876;4.246;2022-12-07T16:36:52;9.00;;;4.55;;
23155;SDS011;11746;50.876;4.246;2022-12-07T16:39:23;9.85;;;3.95;;
23155;SDS011;11746;50.876;4.246;2022-12-07T16:41:49;8.93;;;4.50;;
23155;SDS011;11746;50.876;4.246;2022-12-07T16:44:16;8.85;;;4.40;;
23155;SDS011;11746;50.876;4.246;2022-12-07T16:46:44;7.38;;;4.05;;
23155;SDS011;11746;50.876;4.246;2022-12-07T16:49:13;7.68;;;4.53;;
23155;SDS011;11746;50.876;4.246;2022-12-07T16:51:40;8.23;;;4.72;;